createdAt,value
2018-09-10T00:00:20.912Z,4.27
2018-09-10T00:00:55.139Z,4.40
2018-09-10T00:01:29.357Z,4.40
2018-09-10T00:02:03.266Z,4.50
2018-09-10T00:02:37.128Z,4.50
2018-09-10T00:03:10.971Z,3.87
2018-09-10T00:03:44.818Z,4.70
2018-09-10T00:04:18.654Z,4.20
2018-09-10T00:04:52.488Z,4.43
2018-09-10T00:05:26.668Z,4.13
2018-09-10T00:06:00.515Z,4.33
2018-09-10T00:06:34.378Z,3.60
2018-09-10T00:08:11.732Z,4.10
2018-09-10T00:08:46.873Z,3.80
2018-09-10T00:09:20.719Z,4.27
2018-09-10T00:09:54.613Z,4.17
2018-09-10T00:10:28.471Z,3.93
2018-09-10T00:11:02.333Z,4.00
2018-09-10T00:11:36.434Z,4.70
2018-09-10T00:12:11.004Z,4.23
2018-09-10T00:12:45.228Z,4.23
2018-09-10T00:13:19.078Z,4.27
2018-09-10T00:13:52.933Z,3.40
2018-09-10T00:14:26.797Z,3.83
2018-09-10T00:15:00.653Z,3.83
2018-09-10T00:15:34.541Z,4.50
2018-09-10T00:16:08.731Z,4.47
2018-09-10T00:16:42.581Z,3.60
2018-09-10T00:17:16.824Z,3.80
2018-09-10T00:17:51.385Z,3.70
2018-09-10T00:18:25.264Z,4.07
2018-09-10T00:18:59.169Z,4.03
2018-09-10T00:19:33.039Z,4.20
2018-09-10T00:20:07.083Z,3.30
2018-09-10T00:20:41.401Z,4.47
2018-09-10T00:21:15.609Z,3.90
2018-09-10T00:21:49.800Z,4.23
2018-09-10T00:22:23.736Z,4.10
2018-09-10T00:22:57.635Z,3.90
2018-09-10T00:23:31.797Z,4.20
2018-09-10T00:24:05.679Z,4.40
2018-09-10T00:24:39.559Z,4.63
2018-09-10T00:30:17.254Z,3.70
2018-09-10T00:30:51.453Z,4.30
2018-09-10T00:31:25.333Z,4.03
2018-09-10T00:31:59.153Z,4.57
2018-09-10T00:32:32.981Z,4.20
2018-09-10T00:33:07.385Z,4.70
2018-09-10T00:33:41.599Z,4.37
2018-09-10T00:34:15.494Z,4.30
2018-09-10T00:34:49.569Z,4.10
2018-09-10T00:35:23.415Z,4.73
2018-09-10T00:35:57.257Z,4.60
2018-09-10T00:36:31.101Z,5.00
2018-09-10T00:37:05.617Z,4.70
2018-09-10T00:37:39.475Z,4.80
2018-09-10T00:38:13.324Z,4.77
2018-09-10T00:38:47.140Z,4.47
2018-09-10T00:39:20.973Z,4.43
2018-09-10T00:39:54.857Z,4.60
2018-09-10T00:40:29.043Z,4.70
2018-09-10T00:41:02.919Z,4.60
2018-09-10T00:41:37.345Z,4.47
2018-09-10T00:42:11.437Z,4.30
2018-09-10T00:42:45.288Z,4.80
2018-09-10T00:43:19.190Z,5.20
2018-09-10T00:43:53.415Z,5.10
2018-09-10T00:44:27.267Z,5.60
2018-09-10T00:45:01.139Z,4.80
2018-09-10T00:45:35.029Z,5.00
2018-09-10T00:46:08.905Z,4.47
2018-09-10T00:46:42.762Z,4.03
2018-09-10T00:47:16.641Z,4.37
2018-09-10T00:47:50.503Z,4.07
2018-09-10T00:48:24.707Z,4.03
2018-09-10T00:48:58.553Z,4.20
2018-09-10T00:49:32.750Z,4.50
2018-09-10T00:50:07.013Z,4.10
2018-09-10T00:50:40.881Z,4.90
2018-09-10T00:51:15.109Z,3.87
2018-09-10T00:51:48.967Z,4.13
2018-09-10T00:52:22.814Z,4.20
2018-09-10T00:52:56.976Z,4.37
2018-09-10T00:53:30.867Z,4.30
2018-09-10T00:54:04.859Z,4.70
2018-09-10T00:54:38.761Z,4.03
2018-09-10T00:55:12.689Z,3.80
2018-09-10T00:55:46.535Z,4.20
2018-09-10T00:56:20.408Z,4.53
2018-09-10T00:56:54.283Z,4.30
2018-09-10T00:57:28.145Z,4.43
2018-09-10T00:58:02.414Z,4.23
2018-09-10T00:58:36.288Z,4.43
2018-09-10T00:59:10.417Z,4.40
2018-09-10T00:59:44.303Z,4.57
2018-09-10T01:00:18.163Z,4.60
2018-09-10T01:00:52.014Z,4.60
2018-09-10T01:01:25.925Z,4.37
2018-09-10T01:02:00.141Z,4.80
2018-09-10T01:02:34.017Z,4.30
2018-09-10T01:03:07.883Z,4.63
2018-09-10T01:03:41.773Z,5.43
2018-09-10T01:04:15.784Z,4.57
2018-09-10T01:04:49.647Z,4.73
2018-09-10T01:05:23.543Z,4.30
2018-09-10T01:05:57.689Z,4.13
2018-09-10T01:06:31.583Z,4.10
2018-09-10T01:07:05.771Z,4.37
2018-09-10T01:07:39.965Z,4.27
2018-09-10T01:08:13.856Z,4.30
2018-09-10T01:08:47.725Z,4.73
2018-09-10T01:09:21.595Z,4.60
2018-09-10T01:09:55.441Z,4.50
2018-09-10T01:10:29.311Z,4.90
2018-09-10T01:11:03.220Z,4.30
2018-09-10T01:11:37.553Z,4.00
2018-09-10T01:12:11.413Z,4.30
2018-09-10T01:12:45.284Z,4.57
2018-09-10T01:13:19.162Z,4.50
2018-09-10T01:13:53.015Z,4.23
2018-09-10T01:14:26.891Z,4.80
2018-09-10T01:15:00.751Z,4.47
2018-09-10T01:15:34.612Z,4.50
2018-09-10T01:16:08.845Z,4.80
2018-09-10T01:16:42.675Z,4.60
2018-09-10T01:17:16.517Z,4.73
2018-09-10T01:17:50.707Z,5.17
2018-09-10T01:18:24.603Z,4.60
2018-09-10T01:18:58.789Z,5.17
2018-09-10T01:19:32.987Z,4.03
2018-09-10T01:20:06.860Z,5.10
2018-09-10T01:20:40.715Z,4.73
2018-09-10T01:21:14.917Z,4.90
2018-09-10T01:21:48.793Z,4.33
2018-09-10T01:22:22.885Z,4.60
2018-09-10T01:22:56.739Z,4.77
2018-09-10T01:23:31.614Z,5.00
2018-09-10T01:24:05.485Z,4.53
2018-09-10T01:24:39.339Z,4.37
2018-09-10T01:25:13.167Z,5.00
2018-09-10T01:25:47.338Z,4.57
2018-09-10T01:26:21.209Z,4.83
2018-09-10T01:26:55.091Z,4.70
2018-09-10T01:27:28.965Z,4.23
2018-09-10T01:28:02.835Z,5.20
2018-09-10T01:28:37.099Z,4.80
2018-09-10T01:29:10.965Z,3.93
2018-09-10T01:29:44.849Z,4.80
2018-09-10T01:30:19.041Z,4.47
2018-09-10T01:30:52.989Z,4.87
2018-09-10T01:31:26.886Z,4.20
2018-09-10T01:32:01.086Z,5.30
2018-09-10T01:32:34.971Z,4.60
2018-09-10T01:33:13.429Z,4.83
2018-09-10T01:33:52.701Z,4.07
2018-09-10T01:34:31.995Z,4.47
2018-09-10T01:35:07.197Z,4.87
2018-09-10T01:35:41.397Z,5.00
2018-09-10T01:36:15.265Z,4.63
2018-09-10T01:36:49.125Z,4.80
2018-09-10T01:37:22.978Z,5.30
2018-09-10T01:37:57.219Z,5.07
2018-09-10T01:38:31.079Z,5.00
2018-09-10T01:39:06.817Z,5.77
2018-09-10T01:39:40.675Z,4.50
2018-09-10T01:40:14.555Z,4.90
2018-09-10T01:40:48.395Z,4.83
2018-09-10T01:41:22.291Z,5.73
2018-09-10T01:41:56.167Z,4.73
2018-09-10T01:42:30.285Z,4.73
2018-09-10T01:43:04.139Z,4.60
2018-09-10T01:43:37.995Z,4.90
2018-09-10T01:44:11.883Z,5.00
2018-09-10T01:44:45.739Z,4.60
2018-09-10T01:45:19.605Z,4.73
2018-09-10T01:45:53.464Z,4.63
2018-09-10T01:46:27.667Z,4.30
2018-09-10T01:47:01.537Z,5.10
2018-09-10T01:47:35.389Z,4.63
2018-09-10T01:48:09.469Z,5.13
2018-09-10T01:48:43.735Z,5.40
2018-09-10T01:49:17.615Z,4.40
2018-09-10T01:49:51.505Z,4.90
2018-09-10T01:50:25.339Z,4.90
2018-09-10T01:50:59.619Z,5.30
2018-09-10T01:51:33.465Z,4.47
2018-09-10T01:52:07.348Z,5.07
2018-09-10T01:52:41.319Z,5.17
2018-09-10T01:53:15.181Z,4.90
2018-09-10T01:53:49.048Z,5.00
2018-09-10T01:54:22.905Z,4.80
2018-09-10T01:54:57.129Z,4.80
2018-09-10T01:55:30.965Z,5.10
2018-09-10T01:56:05.433Z,5.40
2018-09-10T01:56:39.281Z,5.43
2018-09-10T01:57:13.145Z,4.73
2018-09-10T01:57:47.030Z,4.80
2018-09-10T01:58:21.209Z,5.13
2018-09-10T01:58:55.417Z,5.10
2018-09-10T01:59:29.281Z,5.07
2018-09-10T02:00:03.133Z,5.20
2018-09-10T02:00:37.098Z,5.40
2018-09-10T02:01:11.047Z,5.10
2018-09-10T02:01:44.901Z,6.10
2018-09-10T02:02:19.101Z,5.50
2018-09-10T02:02:53.302Z,5.13
2018-09-10T02:03:27.507Z,5.40
2018-09-10T02:04:01.729Z,5.27
2018-09-10T02:04:35.604Z,5.17
2018-09-10T02:05:09.457Z,5.90
2018-09-10T02:05:43.381Z,5.57
2018-09-10T02:06:17.229Z,6.20
2018-09-10T02:06:51.117Z,5.97
2018-09-10T02:07:25.309Z,6.00
2018-09-10T02:07:59.163Z,6.10
2018-09-10T02:08:33.007Z,5.93
2018-09-10T02:09:08.177Z,6.53
2018-09-10T02:09:42.050Z,8.00
2018-09-10T02:10:15.923Z,7.20
2018-09-10T02:10:49.789Z,7.40
2018-09-10T02:11:23.649Z,7.20
2018-09-10T02:12:37.663Z,6.90
2018-09-10T02:13:11.505Z,6.93
2018-09-10T02:13:45.537Z,7.17
2018-09-10T02:14:19.417Z,7.23
2018-09-10T02:14:54.273Z,6.87
2018-09-10T02:15:28.132Z,6.87
2018-09-10T02:16:02.636Z,6.90
2018-09-10T02:16:36.561Z,6.80
2018-09-10T02:17:10.505Z,7.70
2018-09-10T02:17:44.505Z,7.73
2018-09-10T02:18:20.296Z,7.90
2018-09-10T02:18:54.189Z,8.50
2018-09-10T02:19:28.076Z,8.77
2018-09-10T02:20:01.957Z,8.30
2018-09-10T02:20:36.126Z,8.00
2018-09-10T02:21:10.280Z,8.10
2018-09-10T02:21:44.124Z,8.30
2018-09-10T02:22:18.610Z,8.50
2018-09-10T02:22:52.487Z,8.30
2018-09-10T02:23:26.376Z,8.47
2018-09-10T02:24:00.351Z,8.27
2018-09-10T02:24:34.624Z,8.60
2018-09-10T02:25:08.452Z,7.53
2018-09-10T02:25:42.459Z,8.10
2018-09-10T02:26:16.352Z,7.90
2018-09-10T02:26:50.279Z,8.20
2018-09-10T02:27:24.504Z,7.70
2018-09-10T02:27:58.352Z,6.80
2018-09-10T02:28:32.535Z,7.17
2018-09-10T02:29:06.446Z,7.47
2018-09-10T02:29:40.335Z,7.70
2018-09-10T02:30:14.220Z,8.87
2018-09-10T02:30:48.384Z,7.80
2018-09-10T02:31:22.226Z,9.13
2018-09-10T02:31:56.100Z,8.20
2018-09-10T02:32:30.295Z,8.07
2018-09-10T02:33:04.824Z,7.27
2018-09-10T02:33:38.997Z,8.13
2018-09-10T02:34:12.846Z,8.70
2018-09-10T02:34:46.721Z,8.30
2018-09-10T02:35:20.558Z,8.60
2018-09-10T02:35:54.410Z,8.27
2018-09-10T02:36:28.275Z,7.23
2018-09-10T02:37:02.160Z,8.10
2018-09-10T02:37:36.088Z,8.27
2018-09-10T02:38:10.296Z,8.80
2018-09-10T02:38:44.199Z,9.30
2018-09-10T02:39:18.455Z,7.77
2018-09-10T02:39:52.345Z,8.90
2018-09-10T02:40:26.230Z,8.70
2018-09-10T02:41:00.576Z,9.20
2018-09-10T02:41:39.688Z,8.37
2018-09-10T02:42:13.570Z,8.27
2018-09-10T02:42:48.095Z,8.73
2018-09-10T02:43:22.318Z,8.30
2018-09-10T02:43:56.162Z,9.13
2018-09-10T02:44:29.994Z,8.10
2018-09-10T02:45:04.218Z,8.80
2018-09-10T02:45:38.068Z,8.50
2018-09-10T02:46:12.250Z,9.20
2018-09-10T02:46:46.773Z,8.67
2018-09-10T02:47:20.931Z,8.20
2018-09-10T02:47:55.100Z,8.53
2018-09-10T02:48:28.942Z,8.70
2018-09-10T02:49:02.777Z,8.40
2018-09-10T02:49:36.609Z,7.97
2018-09-10T02:50:10.830Z,8.10
2018-09-10T02:50:44.645Z,7.43
2018-09-10T02:51:18.489Z,7.73
2018-09-10T02:51:52.792Z,8.37
2018-09-10T02:52:26.668Z,8.50
2018-09-10T02:53:00.516Z,7.70
2018-09-10T02:53:34.672Z,7.80
2018-09-10T02:54:08.478Z,8.00
2018-09-10T02:54:42.436Z,7.77
2018-09-10T02:55:17.057Z,8.27
2018-09-10T02:55:51.326Z,7.70
2018-09-10T02:56:25.174Z,7.63
2018-09-10T02:56:59.180Z,7.17
2018-09-10T02:57:33.160Z,7.60
2018-09-10T02:58:07.346Z,7.00
2018-09-10T02:58:41.534Z,7.60
2018-09-10T02:59:15.369Z,8.17
2018-09-10T02:59:49.254Z,7.40
2018-09-10T03:00:25.086Z,7.20
2018-09-10T03:00:58.926Z,7.40
2018-09-10T03:01:33.134Z,7.50
2018-09-10T03:02:07.318Z,7.63
2018-09-10T03:02:41.487Z,7.23
2018-09-10T03:03:15.372Z,7.30
2018-09-10T03:03:49.264Z,8.00
2018-09-10T03:04:23.113Z,8.00
2018-09-10T03:04:56.969Z,7.47
2018-09-10T03:05:31.104Z,7.47
2018-09-10T03:06:05.310Z,7.13
2018-09-10T03:06:39.153Z,7.60
2018-09-10T03:07:13.751Z,7.80
2018-09-10T03:07:47.750Z,7.57
2018-09-10T03:08:21.612Z,7.80
2018-09-10T03:08:55.464Z,7.60
2018-09-10T03:09:29.688Z,7.73
2018-09-10T03:10:03.558Z,6.97
2018-09-10T03:10:37.451Z,6.60
2018-09-10T03:11:11.344Z,7.17
2018-09-10T03:11:45.222Z,6.30
2018-09-10T03:12:19.074Z,7.03
2018-09-10T03:12:54.366Z,6.73
2018-09-10T03:13:28.216Z,7.40
2018-09-10T03:14:02.496Z,6.53
2018-09-10T03:14:36.346Z,6.63
2018-09-10T03:15:10.216Z,7.30
2018-09-10T03:15:44.090Z,8.10
2018-09-10T03:16:17.939Z,6.90
2018-09-10T03:16:51.804Z,6.40
2018-09-10T03:17:25.988Z,7.13
2018-09-10T03:18:00.280Z,7.77
2018-09-10T03:18:34.589Z,7.00
2018-09-10T03:19:08.450Z,7.17
2018-09-10T03:19:42.326Z,7.60
2018-09-10T03:20:16.226Z,7.30
2018-09-10T03:20:50.131Z,6.30
2018-09-10T03:21:23.976Z,6.43
2018-09-10T03:21:58.042Z,6.03
2018-09-10T03:22:32.268Z,6.77
2018-09-10T03:23:06.330Z,6.47
2018-09-10T03:23:40.507Z,6.27
2018-09-10T03:24:14.611Z,6.33
2018-09-10T03:24:48.506Z,6.70
2018-09-10T03:25:22.700Z,6.30
2018-09-10T03:25:56.596Z,6.10
2018-09-10T03:26:30.894Z,5.80
2018-09-10T03:27:05.098Z,6.00
2018-09-10T03:27:39.270Z,6.17
2018-09-10T03:28:13.134Z,6.87
2018-09-10T03:28:47.188Z,5.83
2018-09-10T03:29:21.390Z,6.50
2018-09-10T03:29:55.272Z,6.50
2018-09-10T03:30:29.139Z,6.77
2018-09-10T03:31:03.042Z,6.33
2018-09-10T03:31:36.944Z,7.20
2018-09-10T03:32:10.761Z,6.03
2018-09-10T03:32:44.637Z,6.00
2018-09-10T03:33:18.505Z,5.87
2018-09-10T03:33:52.348Z,6.47
2018-09-10T03:34:26.191Z,5.97
2018-09-10T03:35:00.030Z,6.20
2018-09-10T03:35:33.884Z,6.63
2018-09-10T03:36:07.896Z,6.37
2018-09-10T03:36:41.721Z,6.20
2018-09-10T03:37:15.587Z,6.00
2018-09-10T03:37:49.764Z,6.60
2018-09-10T03:38:23.986Z,6.43
2018-09-10T03:38:57.800Z,5.83
2018-09-10T03:39:31.977Z,6.30
2018-09-10T03:40:05.819Z,5.70
2018-09-10T03:40:39.682Z,5.20
2018-09-10T03:41:13.517Z,5.90
2018-09-10T03:41:47.352Z,6.50
2018-09-10T03:42:21.532Z,5.43
2018-09-10T03:42:55.550Z,5.93
2018-09-10T03:43:29.390Z,5.60
2018-09-10T03:44:03.577Z,6.23
2018-09-10T03:44:37.406Z,5.57
2018-09-10T03:45:11.226Z,5.73
2018-09-10T03:45:45.070Z,5.80
2018-09-10T03:46:19.248Z,5.30
2018-09-10T03:46:53.120Z,4.63
2018-09-10T03:47:27.071Z,5.00
2018-09-10T03:48:01.367Z,5.50
2018-09-10T03:48:35.237Z,5.03
2018-09-10T03:49:09.442Z,5.10
2018-09-10T03:49:43.281Z,5.20
2018-09-10T03:50:24.058Z,5.20
2018-09-10T03:50:58.248Z,5.30
2018-09-10T03:51:32.088Z,5.83
2018-09-10T03:52:05.947Z,5.13
2018-09-10T03:52:39.760Z,5.40
2018-09-10T03:53:13.596Z,5.73
2018-09-10T03:53:47.740Z,6.50
2018-09-10T03:54:21.588Z,5.50
2018-09-10T03:54:55.490Z,6.00
2018-09-10T03:55:29.632Z,5.30
2018-09-10T03:56:04.653Z,6.00
2018-09-10T03:56:38.800Z,6.10
2018-09-10T03:57:12.706Z,5.43
2018-09-10T03:57:46.770Z,6.80
2018-09-10T03:58:20.612Z,5.93
2018-09-10T03:58:54.466Z,5.97
2018-09-10T03:59:28.316Z,5.47
2018-09-10T04:00:02.534Z,6.17
2018-09-10T04:00:36.396Z,6.37
2018-09-10T04:01:10.605Z,6.47
2018-09-10T04:01:44.818Z,7.40
2018-09-10T04:02:18.688Z,7.13
2018-09-10T04:02:52.524Z,6.13
2018-09-10T04:03:26.392Z,6.10
2018-09-10T04:04:00.234Z,6.23
2018-09-10T04:04:34.234Z,6.57
2018-09-10T04:05:08.328Z,5.67
2018-09-10T04:05:42.273Z,4.83
2018-09-10T04:06:16.196Z,5.80
2018-09-10T04:06:50.481Z,5.40
2018-09-10T04:07:24.339Z,5.37
2018-09-10T04:07:58.555Z,5.90
2018-09-10T04:08:32.395Z,5.83
2018-09-10T04:09:06.710Z,5.23
2018-09-10T04:09:40.602Z,5.93
2018-09-10T04:10:14.434Z,5.30
2018-09-10T04:10:48.304Z,5.60
2018-09-10T04:11:22.182Z,5.63
2018-09-10T04:11:56.050Z,5.30
2018-09-10T04:12:29.920Z,4.90
2018-09-10T04:13:04.128Z,5.70
2018-09-10T04:13:37.967Z,5.20
2018-09-10T04:14:11.831Z,4.50
2018-09-10T04:14:46.008Z,5.40
2018-09-10T04:15:19.865Z,5.27
2018-09-10T04:15:53.722Z,4.87
2018-09-10T04:16:27.619Z,5.03
2018-09-10T04:17:01.524Z,4.80
2018-09-10T04:17:35.544Z,5.40
2018-09-10T04:18:09.418Z,5.43
2018-09-10T04:18:43.332Z,4.70
2018-09-10T04:19:17.210Z,5.47
2018-09-10T04:19:55.352Z,5.20
2018-09-10T04:20:29.560Z,4.80
2018-09-10T04:21:03.752Z,5.03
2018-09-10T04:21:37.660Z,5.33
2018-09-10T04:22:11.500Z,4.93
2018-09-10T04:22:48.856Z,5.50
2018-09-10T04:23:23.276Z,4.57
2018-09-10T04:23:57.150Z,4.40
2018-09-10T04:24:34.416Z,4.70
2018-09-10T04:25:08.968Z,4.47
2018-09-10T04:25:42.836Z,4.10
2018-09-10T04:26:16.868Z,4.23
2018-09-10T04:26:50.774Z,4.20
2018-09-10T04:27:24.640Z,4.37
2018-09-10T04:27:58.514Z,4.57
2018-09-10T04:28:32.391Z,4.20
2018-09-10T04:29:06.261Z,4.60
2018-09-10T04:29:40.150Z,4.60
2018-09-10T04:30:15.869Z,4.57
2018-09-10T04:30:49.744Z,4.40
2018-09-10T04:31:23.605Z,4.13
2018-09-10T04:31:57.508Z,4.40
2018-09-10T04:32:31.364Z,4.00
2018-09-10T04:33:05.584Z,4.10
2018-09-10T04:33:39.452Z,4.30
2018-09-10T04:34:13.623Z,4.47
2018-09-10T04:34:47.515Z,4.40
2018-09-10T04:35:21.366Z,4.00
2018-09-10T04:35:55.308Z,4.43
2018-09-10T04:36:29.336Z,4.40
2018-09-10T04:37:03.564Z,3.97
2018-09-10T04:37:37.924Z,4.27
2018-09-10T04:38:12.122Z,4.43
2018-09-10T04:38:46.004Z,4.33
2018-09-10T04:39:19.843Z,3.60
2018-09-10T04:39:53.716Z,4.50
2018-09-10T04:40:27.564Z,5.23
2018-09-10T04:41:01.375Z,4.10
2018-09-10T04:41:40.517Z,3.60
2018-09-10T04:42:14.763Z,4.10
2018-09-10T04:42:48.774Z,4.70
2018-09-10T04:43:22.978Z,3.93
2018-09-10T04:43:56.849Z,4.30
2018-09-10T04:44:31.105Z,4.07
2018-09-10T04:45:05.504Z,4.33
2018-09-10T04:45:39.423Z,3.73
2018-09-10T04:46:13.246Z,5.03
2018-09-10T04:46:47.433Z,5.00
2018-09-10T04:47:21.304Z,4.30
2018-09-10T04:47:55.186Z,4.67
2018-09-10T04:48:29.152Z,3.93
2018-09-10T04:49:03.010Z,3.83
2018-09-10T04:49:36.957Z,4.10
2018-09-10T04:50:11.302Z,4.00
2018-09-10T04:50:45.158Z,4.20
2018-09-10T04:51:19.331Z,3.93
2018-09-10T04:51:53.207Z,4.17
2018-09-10T04:52:27.088Z,3.67
2018-09-10T04:53:00.942Z,3.90
2018-09-10T04:53:34.822Z,4.10
2018-09-10T04:54:08.701Z,4.40
2018-09-10T04:54:42.560Z,3.80
2018-09-10T04:55:16.680Z,3.90
2018-09-10T04:55:50.839Z,3.90
2018-09-10T04:56:24.702Z,3.90
2018-09-10T04:56:58.561Z,4.03
2018-09-10T04:57:32.472Z,4.83
2018-09-10T04:58:06.493Z,5.87
2018-09-10T04:58:40.766Z,5.27
2018-09-10T04:59:14.626Z,4.27
2018-09-10T04:59:48.464Z,4.37
2018-09-10T05:00:22.302Z,4.00
2018-09-10T05:00:56.456Z,4.60
2018-09-10T05:01:30.318Z,4.97
2018-09-10T05:02:04.860Z,4.37
2018-09-10T05:02:38.777Z,4.90
2018-09-10T05:03:12.646Z,4.50
2018-09-10T05:03:46.558Z,3.63
2018-09-10T05:04:27.870Z,3.93
2018-09-10T05:05:03.516Z,3.90
2018-09-10T05:05:37.405Z,3.73
2018-09-10T05:06:11.314Z,3.80
2018-09-10T05:06:45.234Z,4.37
2018-09-10T05:07:19.077Z,3.60
2018-09-10T05:07:52.992Z,3.93
2018-09-10T05:08:26.848Z,4.10
2018-09-10T05:09:00.733Z,4.80
2018-09-10T05:09:34.964Z,4.60
2018-09-10T05:10:09.173Z,5.10
2018-09-10T05:10:44.000Z,4.23
2018-09-10T05:11:17.859Z,4.30
2018-09-10T05:11:52.030Z,4.07
2018-09-10T05:12:25.910Z,4.30
2018-09-10T05:12:59.750Z,3.87
2018-09-10T05:13:33.622Z,4.23
2018-09-10T05:14:09.618Z,3.80
2018-09-10T05:14:43.800Z,3.63
2018-09-10T05:15:17.690Z,3.77
2018-09-10T05:15:53.833Z,4.20
2018-09-10T05:16:29.501Z,4.73
2018-09-10T05:17:04.392Z,3.77
2018-09-10T05:17:38.336Z,3.97
2018-09-10T05:18:12.236Z,4.90
2018-09-10T05:18:46.404Z,4.03
2018-09-10T05:19:20.308Z,4.20
2018-09-10T05:19:54.164Z,4.50
2018-09-10T05:20:28.057Z,4.87
2018-09-10T05:21:01.934Z,5.10
2018-09-10T05:21:35.850Z,5.00
2018-09-10T05:22:09.745Z,4.57
2018-09-10T05:22:43.790Z,5.30
2018-09-10T05:23:17.999Z,5.17
2018-09-10T05:23:51.884Z,4.67
2018-09-10T05:24:26.086Z,5.60
2018-09-10T05:24:59.963Z,4.30
2018-09-10T05:25:33.824Z,5.33
2018-09-10T05:26:07.704Z,5.10
2018-09-10T05:26:41.584Z,5.80
2018-09-10T05:27:15.650Z,5.60
2018-09-10T05:27:49.590Z,4.67
2018-09-10T05:28:23.476Z,4.27
2018-09-10T05:28:57.334Z,5.60
2018-09-10T05:29:31.432Z,4.57
2018-09-10T05:30:05.308Z,4.87
2018-09-10T05:30:39.129Z,4.67
2018-09-10T05:31:13.008Z,4.53
2018-09-10T05:31:47.226Z,4.77
2018-09-10T05:32:21.110Z,4.30
2018-09-10T05:32:55.016Z,4.50
2018-09-10T05:33:28.890Z,4.40
2018-09-10T05:34:02.762Z,4.10
2018-09-10T05:34:36.970Z,3.73
2018-09-10T05:35:10.839Z,3.90
2018-09-10T05:35:44.812Z,3.87
2018-09-10T05:36:18.708Z,3.90
2018-09-10T05:36:52.536Z,3.67
2018-09-10T05:37:26.402Z,3.73
2018-09-10T05:38:00.272Z,3.80
2018-09-10T05:38:34.456Z,3.60
2018-09-10T05:39:09.064Z,3.97
2018-09-10T05:39:42.928Z,3.70
2018-09-10T05:40:16.794Z,3.73
2018-09-10T05:40:50.665Z,4.10
2018-09-10T05:41:24.851Z,4.10
2018-09-10T05:41:59.118Z,3.60
2018-09-10T05:42:33.109Z,3.47
2018-09-10T05:43:07.004Z,3.43
2018-09-10T05:43:40.882Z,3.70
2018-09-10T05:44:14.737Z,3.80
2018-09-10T05:44:48.632Z,3.63
2018-09-10T05:45:22.515Z,3.50
2018-09-10T05:45:56.722Z,4.50
2018-09-10T05:46:30.948Z,4.20
2018-09-10T05:47:04.835Z,3.80
2018-09-10T05:47:39.079Z,3.20
2018-09-10T05:48:13.420Z,3.63
2018-09-10T05:48:47.466Z,3.60
2018-09-10T05:49:21.671Z,3.13
2018-09-10T05:49:55.540Z,3.40
2018-09-10T05:50:29.410Z,3.97
2018-09-10T05:51:03.265Z,3.80
2018-09-10T05:51:37.439Z,3.90
2018-09-10T05:52:11.306Z,4.23
2018-09-10T05:52:45.179Z,3.70
2018-09-10T05:53:19.249Z,3.67
2018-09-10T05:53:53.273Z,3.80
2018-09-10T05:54:27.127Z,3.87
2018-09-10T05:55:01.160Z,3.87
2018-09-10T05:55:35.398Z,3.57
2018-09-10T05:56:09.441Z,3.60
2018-09-10T05:56:43.342Z,3.50
2018-09-10T05:57:17.198Z,3.63
2018-09-10T05:57:51.083Z,3.50
2018-09-10T05:58:25.001Z,4.00
2018-09-10T05:58:58.871Z,3.73
2018-09-10T05:59:32.733Z,4.10
2018-09-10T06:00:08.513Z,3.40
2018-09-10T06:00:42.375Z,3.80
2018-09-10T06:01:16.583Z,3.80
2018-09-10T06:01:50.445Z,3.90
2018-09-10T06:02:24.645Z,3.70
2018-09-10T06:02:58.797Z,3.70
2018-09-10T06:03:32.716Z,3.53
2018-09-10T06:04:06.905Z,3.73
2018-09-10T06:04:40.783Z,4.03
2018-09-10T06:05:14.681Z,4.00
2018-09-10T06:05:48.521Z,3.03
2018-09-10T06:06:22.792Z,3.67
2018-09-10T06:06:56.647Z,3.80
2018-09-10T06:07:30.837Z,3.80
2018-09-10T06:08:05.405Z,3.73
2018-09-10T06:08:39.312Z,3.30
2018-09-10T06:09:13.706Z,4.00
2018-09-10T06:09:50.317Z,3.10
2018-09-10T06:10:29.568Z,3.60
2018-09-10T06:11:04.280Z,3.70
2018-09-10T06:11:38.363Z,4.40
2018-09-10T06:12:12.231Z,3.60
2018-09-10T06:12:46.435Z,2.90
2018-09-10T06:13:20.309Z,3.70
2018-09-10T06:13:54.209Z,3.10
2018-09-10T06:14:28.457Z,3.40
2018-09-10T06:15:02.651Z,3.50
2018-09-10T06:15:38.355Z,3.30
2018-09-10T06:16:12.233Z,2.77
2018-09-10T06:16:46.532Z,2.60
2018-09-10T06:17:20.545Z,3.80
2018-09-10T06:17:54.407Z,3.23
2018-09-10T06:18:28.267Z,3.37
2018-09-10T06:19:02.536Z,3.40
2018-09-10T06:19:36.469Z,3.40
2018-09-10T06:20:10.343Z,3.33
2018-09-10T06:20:44.197Z,3.17
2018-09-10T06:21:18.416Z,3.10
2018-09-10T06:21:52.291Z,3.17
2018-09-10T06:22:26.159Z,3.33
2018-09-10T06:23:00.016Z,3.50
2018-09-10T06:23:33.857Z,4.17
2018-09-10T06:24:08.069Z,3.40
2018-09-10T06:24:41.936Z,3.33
2018-09-10T06:25:15.763Z,4.20
2018-09-10T06:25:49.616Z,3.47
2018-09-10T06:26:23.517Z,3.27
2018-09-10T06:26:57.385Z,3.60
2018-09-10T06:27:31.277Z,3.73
2018-09-10T06:28:05.135Z,2.83
2018-09-10T06:28:39.328Z,2.60
2018-09-10T06:29:13.239Z,3.20
2018-09-10T06:29:47.417Z,3.17
2018-09-10T06:30:21.309Z,3.30
2018-09-10T06:30:55.333Z,3.37
2018-09-10T06:31:29.507Z,3.10
2018-09-10T06:32:03.351Z,3.57
2018-09-10T06:32:37.237Z,3.10
2018-09-10T06:33:11.117Z,2.60
2018-09-10T06:33:45.055Z,3.40
2018-09-10T06:34:19.273Z,2.87
2018-09-10T06:34:53.395Z,3.30
2018-09-10T06:35:27.349Z,3.07
2018-09-10T06:36:01.339Z,3.50
2018-09-10T06:36:35.309Z,3.13
2018-09-10T06:37:09.243Z,4.10
2018-09-10T06:37:43.913Z,3.10
2018-09-10T06:38:17.837Z,3.17
2018-09-10T06:38:51.795Z,3.47
2018-09-10T06:39:25.781Z,3.70
2018-09-10T06:40:00.023Z,3.77
2018-09-10T06:40:33.983Z,3.70
2018-09-10T06:41:07.905Z,3.77
2018-09-10T06:41:42.507Z,4.27
2018-09-10T06:42:16.491Z,2.97
2018-09-10T06:42:50.454Z,3.30
2018-09-10T06:43:24.459Z,3.40
2018-09-10T06:43:58.401Z,3.40
2018-09-10T06:44:32.339Z,3.20
2018-09-10T06:45:06.695Z,3.37
2018-09-10T06:45:40.695Z,3.20
2018-09-10T06:46:14.587Z,3.40
2018-09-10T06:46:48.679Z,3.33
2018-09-10T06:47:22.663Z,3.43
2018-09-10T06:47:56.573Z,3.77
2018-09-10T06:48:34.770Z,3.20
2018-09-10T06:49:08.889Z,3.73
2018-09-10T06:49:49.639Z,3.60
2018-09-10T06:50:23.923Z,3.63
2018-09-10T06:50:57.897Z,3.43
2018-09-10T06:51:32.385Z,3.30
2018-09-10T06:52:07.029Z,3.67
2018-09-10T06:52:40.931Z,3.40
2018-09-10T06:53:14.929Z,4.10
2018-09-10T06:53:49.879Z,3.40
2018-09-10T06:54:23.851Z,3.53
2018-09-10T06:54:57.874Z,3.67
2018-09-10T06:55:32.191Z,3.40
2018-09-10T06:56:06.689Z,3.50
2018-09-10T06:56:40.557Z,3.60
2018-09-10T06:57:15.647Z,3.07
2018-09-10T06:57:50.069Z,3.80
2018-09-10T06:58:24.085Z,3.10
2018-09-10T06:58:59.097Z,3.50
2018-09-10T06:59:33.305Z,3.90
2018-09-10T07:00:07.582Z,3.63
2018-09-10T07:00:41.959Z,3.27
2018-09-10T07:01:15.837Z,3.63
2018-09-10T07:01:49.698Z,3.53
2018-09-10T07:02:23.547Z,3.50
2018-09-10T07:02:57.361Z,3.43
2018-09-10T07:03:31.238Z,3.47
2018-09-10T07:04:05.425Z,3.80
2018-09-10T07:04:39.623Z,3.80
2018-09-10T07:05:13.501Z,3.33
2018-09-10T07:05:47.708Z,3.70
2018-09-10T07:06:21.892Z,3.17
2018-09-10T07:06:55.954Z,3.80
2018-09-10T07:07:29.815Z,3.37
2018-09-10T07:08:04.057Z,3.37
2018-09-10T07:08:38.597Z,3.40
2018-09-10T07:09:12.451Z,3.10
2018-09-10T07:09:46.312Z,3.03
2018-09-10T07:10:20.193Z,3.27
2018-09-10T07:10:54.033Z,3.70
2018-09-10T07:11:27.915Z,3.33
2018-09-10T07:12:02.133Z,3.63
2018-09-10T07:12:36.053Z,3.70
2018-09-10T07:13:10.139Z,3.60
2018-09-10T07:13:44.155Z,3.17
2018-09-10T07:14:18.033Z,3.47
2018-09-10T07:14:52.280Z,3.50
2018-09-10T07:15:26.144Z,3.50
2018-09-10T07:16:00.025Z,3.60
2018-09-10T07:16:34.227Z,3.30
2018-09-10T07:17:08.087Z,3.63
2018-09-10T07:17:41.931Z,3.70
2018-09-10T07:18:16.217Z,3.33
2018-09-10T07:18:50.261Z,4.40
2018-09-10T07:19:26.218Z,3.10
2018-09-10T07:20:00.096Z,3.83
2018-09-10T07:20:33.985Z,3.30
2018-09-10T07:21:07.866Z,3.50
2018-09-10T07:21:41.747Z,4.07
2018-09-10T07:22:15.714Z,3.60
2018-09-10T07:22:49.595Z,3.90
2018-09-10T07:23:23.431Z,3.70
2018-09-10T07:23:57.638Z,3.30
2018-09-10T07:24:32.815Z,3.30
2018-09-10T07:25:07.873Z,3.43
2018-09-10T07:25:41.749Z,3.40
2018-09-10T07:26:16.005Z,3.20
2018-09-10T07:26:50.217Z,3.30
2018-09-10T07:27:24.572Z,3.20
2018-09-10T07:27:58.443Z,3.20
2018-09-10T07:28:32.315Z,3.40
2018-09-10T07:29:06.245Z,3.30
2018-09-10T07:29:40.171Z,2.93
2018-09-10T07:30:14.413Z,3.43
2018-09-10T07:30:48.253Z,3.17
2018-09-10T07:31:22.163Z,3.37
2018-09-10T07:31:56.039Z,2.97
2018-09-10T07:32:29.975Z,3.23
2018-09-10T07:33:04.175Z,2.30
2018-09-10T07:33:38.847Z,3.00
2018-09-10T07:34:13.397Z,2.90
2018-09-10T07:34:47.293Z,2.70
2018-09-10T07:35:21.209Z,3.33
2018-09-10T07:35:55.061Z,2.70
2018-09-10T07:36:28.937Z,2.73
2018-09-10T07:37:03.219Z,2.77
2018-09-10T07:37:37.131Z,2.17
2018-09-10T07:38:11.005Z,2.93
2018-09-10T07:38:44.870Z,2.83
2018-09-10T07:39:18.737Z,2.70
2018-09-10T07:39:52.953Z,2.40
2018-09-10T07:40:27.154Z,2.97
2018-09-10T07:41:01.366Z,2.50